sensor_id;sensor_type;location;lat;lon;timestamp;temperature;humidity
22430;DHT22;11382;48.086;11.632;2022-07-29T00:01:59;19.60;99.90
22430;DHT22;11382;48.086;11.632;2022-07-29T00:04:27;19.60;99.90
22430;DHT22;11382;48.086;11.632;2022-07-29T00:06:56;19.70;99.90
22430;DHT22;11382;48.086;11.632;2022-07-29T00:09:24;19.70;99.90
22430;DHT22;11382;48.086;11.632;2022-07-29T00:11:52;19.60;99.90
22430;DHT22;11382;48.086;11.632;2022-07-29T00:14:20;19.60;99.90
22430;DHT22;11382;48.086;11.632;2022-07-29T00:16:48;19.60;99.90
22430;DHT22;11382;48.086;11.632;2022-07-29T00:19:16;19.60;99.90
22430;DHT22;11382;48.086;11.632;2022-07-29T00:21:44;19.60;99.90
22430;DHT22;11382;48.086;11.632;2022-07-29T00:24:13;19.60;99.90
22430;DHT22;11382;48.086;11.632;2022-07-29T00:26:42;19.60;99.90
22430;DHT22;11382;48.086;11.632;2022-07-29T00:29:10;19.70;99.90
22430;DHT22;11382;48.086;11.632;2022-07-29T00:31:58;19.60;99.90
22430;DHT22;11382;48.086;11.632;2022-07-29T00:34:26;19.70;99.90
22430;DHT22;11382;48.086;11.632;2022-07-29T00:37:11;19.70;99.90
22430;DHT22;11382;48.086;11.632;2022-07-29T00:39:41;19.80;99.90
22430;DHT22;11382;48.086;11.632;2022-07-29T00:42:09;19.80;99.90
22430;DHT22;11382;48.086;11.632;2022-07-29T00:44:37;19.80;99.90
22430;DHT22;11382;48.086;11.632;2022-07-29T00:47:06;19.60;99.90
22430;DHT22;11382;48.086;11.632;2022-07-29T00:49:34;19.70;99.90
22430;DHT22;11382;48.086;11.632;2022-07-29T00:52:03;19.70;99.90
22430;DHT22;11382;48.086;11.632;2022-07-29T00:54:33;19.60;99.90
22430;DHT22;11382;48.086;11.632;2022-07-29T00:57:06;19.60;99.90
22430;DHT22;11382;48.086;11.632;2022-07-29T00:59:35;19.60;99.90
22430;DHT22;11382;48.086;11.632;2022-07-29T01:02:03;19.60;99.90
22430;DHT22;11382;48.086;11.632;2022-07-29T01:04:31;19.60;99.90
22430;DHT22;11382;48.086;11.632;2022-07-29T01:07:01;19.60;99.90
22430;DHT22;11382;48.086;11.632;2022-07-29T01:09:29;19.60;99.90
22430;DHT22;11382;48.086;11.632;2022-07-29T01:12:16;19.50;99.90
22430;DHT22;11382;48.086;11.632;2022-07-29T01:14:45;19.50;99.90
22430;DHT22;11382;48.086;11.632;2022-07-29T01:17:17;19.40;99.90
22430;DHT22;11382;48.086;11.632;2022-07-29T01:19:51;19.40;99.90
22430;DHT22;11382;48.086;11.632;2022-07-29T01:22:31;19.40;99.90
22430;DHT22;11382;48.086;11.632;2022-07-29T01:25:17;19.30;99.90
22430;DHT22;11382;48.086;11.632;2022-07-29T01:28:08;19.30;99.90
22430;DHT22;11382;48.086;11.632;2022-07-29T01:30:42;19.30;99.90
22430;DHT22;11382;48.086;11.632;2022-07-29T01:33:15;19.40;99.90
22430;DHT22;11382;48.086;11.632;2022-07-29T01:36:00;19.40;99.90
22430;DHT22;11382;48.086;11.632;2022-07-29T01:38:29;19.50;99.90
22430;DHT22;11382;48.086;11.632;2022-07-29T01:41:02;19.50;99.90
22430;DHT22;11382;48.086;11.632;2022-07-29T01:43:36;19.50;99.90
22430;DHT22;11382;48.086;11.632;2022-07-29T01:46:10;19.50;99.90
22430;DHT22;11382;48.086;11.632;2022-07-29T01:48:43;19.40;99.90
22430;DHT22;11382;48.086;11.632;2022-07-29T01:51:18;19.40;99.90
22430;DHT22;11382;48.086;11.632;2022-07-29T01:53:52;19.40;99.90
22430;DHT22;11382;48.086;11.632;2022-07-29T01:56:23;19.40;99.90
22430;DHT22;11382;48.086;11.632;2022-07-29T01:58:52;19.40;99.90
22430;DHT22;11382;48.086;11.632;2022-07-29T02:01:25;19.30;99.90
22430;DHT22;11382;48.086;11.632;2022-07-29T02:03:55;19.30;99.90
22430;DHT22;11382;48.086;11.632;2022-07-29T02:06:25;19.30;99.90
22430;DHT22;11382;48.086;11.632;2022-07-29T02:08:54;19.20;99.90
22430;DHT22;11382;48.086;11.632;2022-07-29T02:11:23;19.20;99.90
22430;DHT22;11382;48.086;11.632;2022-07-29T02:13:52;19.20;99.90
22430;DHT22;11382;48.086;11.632;2022-07-29T02:16:27;19.20;99.90
22430;DHT22;11382;48.086;11.632;2022-07-29T02:18:57;19.20;99.90
22430;DHT22;11382;48.086;11.632;2022-07-29T02:21:29;19.10;99.90
22430;DHT22;11382;48.086;11.632;2022-07-29T02:24:00;19.20;99.90
22430;DHT22;11382;48.086;11.632;2022-07-29T02:26:29;19.20;99.90
22430;DHT22;11382;48.086;11.632;2022-07-29T02:28:59;19.20;99.90
22430;DHT22;11382;48.086;11.632;2022-07-29T02:31:32;19.10;99.90
22430;DHT22;11382;48.086;11.632;2022-07-29T02:34:02;19.00;99.90
22430;DHT22;11382;48.086;11.632;2022-07-29T02:36:31;18.90;99.90
22430;DHT22;11382;48.086;11.632;2022-07-29T02:39:00;18.80;99.90
22430;DHT22;11382;48.086;11.632;2022-07-29T02:41:33;18.80;99.90
22430;DHT22;11382;48.086;11.632;2022-07-29T02:44:05;18.80;99.90
22430;DHT22;11382;48.086;11.632;2022-07-29T02:46:37;18.80;99.90
22430;DHT22;11382;48.086;11.632;2022-07-29T02:49:09;18.80;99.90
22430;DHT22;11382;48.086;11.632;2022-07-29T02:51:43;19.00;99.90
22430;DHT22;11382;48.086;11.632;2022-07-29T02:54:29;19.00;99.90
22430;DHT22;11382;48.086;11.632;2022-07-29T02:57:01;19.10;99.90
22430;DHT22;11382;48.086;11.632;2022-07-29T02:59:33;19.00;99.90
22430;DHT22;11382;48.086;11.632;2022-07-29T03:02:05;18.90;99.90
22430;DHT22;11382;48.086;11.632;2022-07-29T03:04:34;18.90;99.90
22430;DHT22;11382;48.086;11.632;2022-07-29T03:07:03;18.80;99.90
22430;DHT22;11382;48.086;11.632;2022-07-29T03:09:33;18.90;99.90
22430;DHT22;11382;48.086;11.632;2022-07-29T03:12:02;18.90;99.90
22430;DHT22;11382;48.086;11.632;2022-07-29T03:14:31;18.90;99.90
22430;DHT22;11382;48.086;11.632;2022-07-29T03:17:00;18.80;99.90
22430;DHT22;11382;48.086;11.632;2022-07-29T03:19:29;18.70;99.90
22430;DHT22;11382;48.086;11.632;2022-07-29T03:21:58;18.60;99.90
22430;DHT22;11382;48.086;11.632;2022-07-29T03:24:31;18.50;99.90
22430;DHT22;11382;48.086;11.632;2022-07-29T03:27:00;18.30;99.90
22430;DHT22;11382;48.086;11.632;2022-07-29T03:29:29;18.30;99.90
22430;DHT22;11382;48.086;11.632;2022-07-29T03:32:00;18.10;99.90
22430;DHT22;11382;48.086;11.632;2022-07-29T03:34:31;18.10;99.90
22430;DHT22;11382;48.086;11.632;2022-07-29T03:36:59;18.10;99.90
22430;DHT22;11382;48.086;11.632;2022-07-29T03:39:31;18.10;99.90
22430;DHT22;11382;48.086;11.632;2022-07-29T03:42:01;18.00;99.90
22430;DHT22;11382;48.086;11.632;2022-07-29T03:44:30;18.00;99.90
22430;DHT22;11382;48.086;11.632;2022-07-29T03:47:01;18.10;99.90
22430;DHT22;11382;48.086;11.632;2022-07-29T03:49:32;18.10;99.90
22430;DHT22;11382;48.086;11.632;2022-07-29T03:52:03;17.90;99.90
22430;DHT22;11382;48.086;11.632;2022-07-29T03:54:32;17.70;99.90
22430;DHT22;11382;48.086;11.632;2022-07-29T03:57:01;17.70;99.90
22430;DHT22;11382;48.086;11.632;2022-07-29T03:59:30;17.60;99.90
22430;DHT22;11382;48.086;11.632;2022-07-29T04:02:01;17.60;99.90
22430;DHT22;11382;48.086;11.632;2022-07-29T04:04:33;17.50;99.90
22430;DHT22;11382;48.086;11.632;2022-07-29T04:07:02;17.60;99.90
22430;DHT22;11382;48.086;11.632;2022-07-29T04:09:30;17.60;99.90
22430;DHT22;11382;48.086;11.632;2022-07-29T04:11:58;17.60;99.90
22430;DHT22;11382;48.086;11.632;2022-07-29T04:14:31;17.80;99.90
22430;DHT22;11382;48.086;11.632;2022-07-29T04:17:00;17.80;99.90
22430;DHT22;11382;48.086;11.632;2022-07-29T04:19:28;17.80;99.90
22430;DHT22;11382;48.086;11.632;2022-07-29T04:21:58;17.80;99.90
22430;DHT22;11382;48.086;11.632;2022-07-29T04:24:26;17.90;99.90
22430;DHT22;11382;48.086;11.632;2022-07-29T04:26:54;18.00;99.90
22430;DHT22;11382;48.086;11.632;2022-07-29T04:29:22;18.10;99.90
22430;DHT22;11382;48.086;11.632;2022-07-29T04:31:50;18.20;99.90
22430;DHT22;11382;48.086;11.632;2022-07-29T04:34:18;18.30;99.90
22430;DHT22;11382;48.086;11.632;2022-07-29T04:36:46;18.70;99.90
22430;DHT22;11382;48.086;11.632;2022-07-29T04:39:16;19.10;99.90
22430;DHT22;11382;48.086;11.632;2022-07-29T04:41:49;19.60;99.90
22430;DHT22;11382;48.086;11.632;2022-07-29T04:44:20;20.00;99.90
22430;DHT22;11382;48.086;11.632;2022-07-29T04:46:56;20.30;99.90
22430;DHT22;11382;48.086;11.632;2022-07-29T04:49:24;20.80;99.90
22430;DHT22;11382;48.086;11.632;2022-07-29T04:51:53;21.30;99.90
22430;DHT22;11382;48.086;11.632;2022-07-29T04:54:22;22.10;99.90
22430;DHT22;11382;48.086;11.632;2022-07-29T04:56:51;23.10;99.90
22430;DHT22;11382;48.086;11.632;2022-07-29T04:59:19;23.90;99.90
22430;DHT22;11382;48.086;11.632;2022-07-29T05:01:47;24.80;99.90
22430;DHT22;11382;48.086;11.632;2022-07-29T05:04:15;25.50;99.90
22430;DHT22;11382;48.086;11.632;2022-07-29T05:06:44;26.40;99.90
22430;DHT22;11382;48.086;11.632;2022-07-29T05:09:12;27.10;99.90
22430;DHT22;11382;48.086;11.632;2022-07-29T05:11:41;27.40;98.50
22430;DHT22;11382;48.086;11.632;2022-07-29T05:14:09;28.10;96.90
22430;DHT22;11382;48.086;11.632;2022-07-29T05:16:37;28.00;95.40
22430;DHT22;11382;48.086;11.632;2022-07-29T05:19:06;27.60;94.80
22430;DHT22;11382;48.086;11.632;2022-07-29T05:21:40;28.20;95.40
22430;DHT22;11382;48.086;11.632;2022-07-29T05:24:08;28.20;94.40
22430;DHT22;11382;48.086;11.632;2022-07-29T05:26:36;27.40;95.30
22430;DHT22;11382;48.086;11.632;2022-07-29T05:29:05;26.60;96.10
22430;DHT22;11382;48.086;11.632;2022-07-29T05:31:53;25.90;96.60
22430;DHT22;11382;48.086;11.632;2022-07-29T05:34:21;25.30;97.90
22430;DHT22;11382;48.086;11.632;2022-07-29T05:36:49;24.80;99.40
22430;DHT22;11382;48.086;11.632;2022-07-29T05:39:17;24.60;99.90
22430;DHT22;11382;48.086;11.632;2022-07-29T05:41:45;24.80;99.90
22430;DHT22;11382;48.086;11.632;2022-07-29T05:44:19;25.10;99.90
22430;DHT22;11382;48.086;11.632;2022-07-29T05:46:50;25.90;99.10
22430;DHT22;11382;48.086;11.632;2022-07-29T05:49:18;27.20;97.90
22430;DHT22;11382;48.086;11.632;2022-07-29T05:51:53;29.10;93.90
22430;DHT22;11382;48.086;11.632;2022-07-29T05:54:21;29.70;92.80
22430;DHT22;11382;48.086;11.632;2022-07-29T05:56:49;31.00;90.80
22430;DHT22;11382;48.086;11.632;2022-07-29T05:59:16;32.00;85.80
22430;DHT22;11382;48.086;11.632;2022-07-29T06:01:46;31.90;85.30
22430;DHT22;11382;48.086;11.632;2022-07-29T06:04:14;32.50;80.70
22430;DHT22;11382;48.086;11.632;2022-07-29T06:06:42;32.00;79.00
22430;DHT22;11382;48.086;11.632;2022-07-29T06:09:10;32.70;77.90
22430;DHT22;11382;48.086;11.632;2022-07-29T06:11:40;33.60;74.60
22430;DHT22;11382;48.086;11.632;2022-07-29T06:14:08;33.40;75.00
22430;DHT22;11382;48.086;11.632;2022-07-29T06:16:36;34.00;71.50
22430;DHT22;11382;48.086;11.632;2022-07-29T06:19:05;34.00;70.90
22430;DHT22;11382;48.086;11.632;2022-07-29T06:21:35;34.00;70.70
22430;DHT22;11382;48.086;11.632;2022-07-29T06:24:07;34.20;69.80
22430;DHT22;11382;48.086;11.632;2022-07-29T06:26:35;34.50;68.10
22430;DHT22;11382;48.086;11.632;2022-07-29T06:29:06;36.00;65.60
22430;DHT22;11382;48.086;11.632;2022-07-29T06:31:34;36.50;62.00
22430;DHT22;11382;48.086;11.632;2022-07-29T06:34:02;36.10;62.30
22430;DHT22;11382;48.086;11.632;2022-07-29T06:36:34;35.90;61.30
22430;DHT22;11382;48.086;11.632;2022-07-29T06:39:04;37.30;59.80
22430;DHT22;11382;48.086;11.632;2022-07-29T06:41:34;35.80;60.00
22430;DHT22;11382;48.086;11.632;2022-07-29T06:44:08;35.20;61.70
22430;DHT22;11382;48.086;11.632;2022-07-29T06:46:36;35.60;61.00
22430;DHT22;11382;48.086;11.632;2022-07-29T06:49:04;36.00;60.50
22430;DHT22;11382;48.086;11.632;2022-07-29T06:51:34;35.10;59.30
22430;DHT22;11382;48.086;11.632;2022-07-29T06:54:02;34.40;61.30
22430;DHT22;11382;48.086;11.632;2022-07-29T06:56:33;34.70;61.50
22430;DHT22;11382;48.086;11.632;2022-07-29T06:59:06;35.20;60.20
22430;DHT22;11382;48.086;11.632;2022-07-29T07:01:35;35.50;60.10
22430;DHT22;11382;48.086;11.632;2022-07-29T07:04:03;35.60;59.00
22430;DHT22;11382;48.086;11.632;2022-07-29T07:06:31;35.80;59.40
22430;DHT22;11382;48.086;11.632;2022-07-29T07:09:00;36.20;59.20
22430;DHT22;11382;48.086;11.632;2022-07-29T07:11:28;36.90;59.20
22430;DHT22;11382;48.086;11.632;2022-07-29T07:13:57;37.60;57.10
22430;DHT22;11382;48.086;11.632;2022-07-29T07:16:30;37.70;56.20
22430;DHT22;11382;48.086;11.632;2022-07-29T07:18:59;38.40;56.70
22430;DHT22;11382;48.086;11.632;2022-07-29T07:21:27;38.60;54.30
22430;DHT22;11382;48.086;11.632;2022-07-29T07:23:56;38.10;55.50
22430;DHT22;11382;48.086;11.632;2022-07-29T07:26:26;38.40;54.20
22430;DHT22;11382;48.086;11.632;2022-07-29T07:28:54;38.70;53.70
22430;DHT22;11382;48.086;11.632;2022-07-29T07:31:22;39.20;52.20
22430;DHT22;11382;48.086;11.632;2022-07-29T07:33:50;38.60;52.90
22430;DHT22;11382;48.086;11.632;2022-07-29T07:36:18;38.60;53.20
22430;DHT22;11382;48.086;11.632;2022-07-29T07:38:46;39.20;52.00
22430;DHT22;11382;48.086;11.632;2022-07-29T07:41:14;38.90;52.90
22430;DHT22;11382;48.086;11.632;2022-07-29T07:43:43;39.30;51.60
22430;DHT22;11382;48.086;11.632;2022-07-29T07:46:11;39.20;51.20
22430;DHT22;11382;48.086;11.632;2022-07-29T07:48:39;40.30;49.70
22430;DHT22;11382;48.086;11.632;2022-07-29T07:51:07;41.20;48.70
22430;DHT22;11382;48.086;11.632;2022-07-29T07:53:35;40.80;47.50
22430;DHT22;11382;48.086;11.632;2022-07-29T07:56:03;39.70;49.30
22430;DHT22;11382;48.086;11.632;2022-07-29T07:58:37;40.70;46.70
22430;DHT22;11382;48.086;11.632;2022-07-29T08:01:07;39.60;46.00
22430;DHT22;11382;48.086;11.632;2022-07-29T08:03:35;40.50;46.50
22430;DHT22;11382;48.086;11.632;2022-07-29T08:06:03;40.10;46.00
22430;DHT22;11382;48.086;11.632;2022-07-29T08:08:32;40.20;47.10
22430;DHT22;11382;48.086;11.632;2022-07-29T08:11:00;39.50;47.20
22430;DHT22;11382;48.086;11.632;2022-07-29T08:13:35;40.30;45.70
22430;DHT22;11382;48.086;11.632;2022-07-29T08:16:05;40.30;45.20
22430;DHT22;11382;48.086;11.632;2022-07-29T08:18:42;39.80;46.20
22430;DHT22;11382;48.086;11.632;2022-07-29T08:21:10;39.10;47.00
22430;DHT22;11382;48.086;11.632;2022-07-29T08:23:40;39.80;47.40
22430;DHT22;11382;48.086;11.632;2022-07-29T08:26:19;39.30;47.00
22430;DHT22;11382;48.086;11.632;2022-07-29T08:28:49;39.40;47.50
22430;DHT22;11382;48.086;11.632;2022-07-29T08:31:17;40.50;45.90
22430;DHT22;11382;48.086;11.632;2022-07-29T08:33:46;40.70;45.00
22430;DHT22;11382;48.086;11.632;2022-07-29T08:36:14;40.40;45.20
22430;DHT22;11382;48.086;11.632;2022-07-29T08:38:42;40.70;44.90
22430;DHT22;11382;48.086;11.632;2022-07-29T08:41:10;40.70;44.20
22430;DHT22;11382;48.086;11.632;2022-07-29T08:43:39;41.00;44.50
22430;DHT22;11382;48.086;11.632;2022-07-29T08:46:08;41.40;45.50
22430;DHT22;11382;48.086;11.632;2022-07-29T08:48:37;41.70;43.70
22430;DHT22;11382;48.086;11.632;2022-07-29T08:51:07;40.00;45.30
22430;DHT22;11382;48.086;11.632;2022-07-29T08:53:36;40.00;45.30
22430;DHT22;11382;48.086;11.632;2022-07-29T08:56:04;41.00;44.10
22430;DHT22;11382;48.086;11.632;2022-07-29T08:58:33;42.90;43.80
22430;DHT22;11382;48.086;11.632;2022-07-29T09:01:04;41.80;42.90
22430;DHT22;11382;48.086;11.632;2022-07-29T09:03:39;41.20;45.50
22430;DHT22;11382;48.086;11.632;2022-07-29T09:06:12;40.50;44.60
22430;DHT22;11382;48.086;11.632;2022-07-29T09:08:41;38.10;47.10
22430;DHT22;11382;48.086;11.632;2022-07-29T09:11:09;37.80;48.00
22430;DHT22;11382;48.086;11.632;2022-07-29T09:13:38;38.10;47.90
22430;DHT22;11382;48.086;11.632;2022-07-29T09:16:06;37.70;49.00
22430;DHT22;11382;48.086;11.632;2022-07-29T09:18:36;37.90;48.50
22430;DHT22;11382;48.086;11.632;2022-07-29T09:21:05;38.00;48.40
22430;DHT22;11382;48.086;11.632;2022-07-29T09:24:10;36.70;49.60
22430;DHT22;11382;48.086;11.632;2022-07-29T09:26:40;36.60;51.10
22430;DHT22;11382;48.086;11.632;2022-07-29T09:29:09;38.10;49.40
22430;DHT22;11382;48.086;11.632;2022-07-29T09:31:40;38.80;48.80
22430;DHT22;11382;48.086;11.632;2022-07-29T09:34:10;38.60;47.40
22430;DHT22;11382;48.086;11.632;2022-07-29T09:36:39;39.60;46.50
22430;DHT22;11382;48.086;11.632;2022-07-29T09:39:09;39.80;47.80
22430;DHT22;11382;48.086;11.632;2022-07-29T09:41:45;40.50;46.70
22430;DHT22;11382;48.086;11.632;2022-07-29T09:44:13;42.10;45.40
22430;DHT22;11382;48.086;11.632;2022-07-29T09:46:56;42.00;43.60
22430;DHT22;11382;48.086;11.632;2022-07-29T09:49:25;40.50;44.70
22430;DHT22;11382;48.086;11.632;2022-07-29T09:52:01;38.30;47.40
22430;DHT22;11382;48.086;11.632;2022-07-29T09:54:32;36.60;49.90
22430;DHT22;11382;48.086;11.632;2022-07-29T09:57:03;35.20;52.50
22430;DHT22;11382;48.086;11.632;2022-07-29T09:59:32;33.30;55.90
22430;DHT22;11382;48.086;11.632;2022-07-29T10:02:00;32.50;58.00
22430;DHT22;11382;48.086;11.632;2022-07-29T10:04:39;31.60;59.00
22430;DHT22;11382;48.086;11.632;2022-07-29T10:07:07;31.50;60.10
22430;DHT22;11382;48.086;11.632;2022-07-29T10:09:36;31.40;60.10
22430;DHT22;11382;48.086;11.632;2022-07-29T10:12:06;31.30;60.10
22430;DHT22;11382;48.086;11.632;2022-07-29T10:14:36;30.80;63.30
22430;DHT22;11382;48.086;11.632;2022-07-29T10:17:05;30.60;63.00
22430;DHT22;11382;48.086;11.632;2022-07-29T10:19:34;30.40;63.30
22430;DHT22;11382;48.086;11.632;2022-07-29T10:22:05;30.00;64.40
22430;DHT22;11382;48.086;11.632;2022-07-29T10:24:40;29.60;65.60
22430;DHT22;11382;48.086;11.632;2022-07-29T10:27:09;29.40;67.40
22430;DHT22;11382;48.086;11.632;2022-07-29T10:29:40;29.10;67.40
22430;DHT22;11382;48.086;11.632;2022-07-29T10:32:26;29.30;68.00
22430;DHT22;11382;48.086;11.632;2022-07-29T10:35:18;29.10;68.80
22430;DHT22;11382;48.086;11.632;2022-07-29T10:38:10;29.20;69.30
22430;DHT22;11382;48.086;11.632;2022-07-29T10:40:50;28.50;69.20
22430;DHT22;11382;48.086;11.632;2022-07-29T10:43:46;28.20;70.90
22430;DHT22;11382;48.086;11.632;2022-07-29T10:46:18;28.00;70.70
22430;DHT22;11382;48.086;11.632;2022-07-29T10:49:08;27.50;71.80
22430;DHT22;11382;48.086;11.632;2022-07-29T10:51:54;27.30;73.10
22430;DHT22;11382;48.086;11.632;2022-07-29T10:54:44;27.30;72.90
22430;DHT22;11382;48.086;11.632;2022-07-29T10:57:18;28.10;73.30
22430;DHT22;11382;48.086;11.632;2022-07-29T11:00:30;30.80;68.50
22430;DHT22;11382;48.086;11.632;2022-07-29T11:02:58;33.10;61.30
22430;DHT22;11382;48.086;11.632;2022-07-29T11:05:55;34.40;58.30
22430;DHT22;11382;48.086;11.632;2022-07-29T11:08:26;34.70;57.00
22430;DHT22;11382;48.086;11.632;2022-07-29T11:14:04;37.10;52.60
22430;DHT22;11382;48.086;11.632;2022-07-29T11:16:58;38.40;51.50
22430;DHT22;11382;48.086;11.632;2022-07-29T11:19:27;37.80;52.50
22430;DHT22;11382;48.086;11.632;2022-07-29T11:21:57;39.10;51.00
22430;DHT22;11382;48.086;11.632;2022-07-29T11:24:26;40.30;48.80
22430;DHT22;11382;48.086;11.632;2022-07-29T11:27:09;41.00;47.00
22430;DHT22;11382;48.086;11.632;2022-07-29T11:29:48;40.60;46.30
22430;DHT22;11382;48.086;11.632;2022-07-29T11:32:17;40.10;47.40
22430;DHT22;11382;48.086;11.632;2022-07-29T11:35:10;39.00;48.00
22430;DHT22;11382;48.086;11.632;2022-07-29T11:37:44;38.50;48.80
22430;DHT22;11382;48.086;11.632;2022-07-29T11:40:21;36.90;52.10
22430;DHT22;11382;48.086;11.632;2022-07-29T11:42:49;36.30;50.40
22430;DHT22;11382;48.086;11.632;2022-07-29T11:45:25;35.10;52.70
22430;DHT22;11382;48.086;11.632;2022-07-29T11:48:16;35.30;49.60
22430;DHT22;11382;48.086;11.632;2022-07-29T11:50:57;35.30;49.80
22430;DHT22;11382;48.086;11.632;2022-07-29T11:53:25;35.20;48.40
22430;DHT22;11382;48.086;11.632;2022-07-29T11:55:59;34.40;51.30
22430;DHT22;11382;48.086;11.632;2022-07-29T11:58:28;33.60;52.00
22430;DHT22;11382;48.086;11.632;2022-07-29T12:00:59;34.20;52.40
22430;DHT22;11382;48.086;11.632;2022-07-29T12:03:30;33.10;53.40
22430;DHT22;11382;48.086;11.632;2022-07-29T12:06:03;32.60;54.70
22430;DHT22;11382;48.086;11.632;2022-07-29T12:08:41;31.90;55.60
22430;DHT22;11382;48.086;11.632;2022-07-29T12:11:17;31.40;56.90
22430;DHT22;11382;48.086;11.632;2022-07-29T12:13:48;31.60;57.40
22430;DHT22;11382;48.086;11.632;2022-07-29T12:16:17;32.50;57.10
22430;DHT22;11382;48.086;11.632;2022-07-29T12:18:59;32.50;55.80
22430;DHT22;11382;48.086;11.632;2022-07-29T12:21:29;32.10;56.30
22430;DHT22;11382;48.086;11.632;2022-07-29T12:23:57;31.60;57.20
22430;DHT22;11382;48.086;11.632;2022-07-29T12:26:36;31.50;57.50
22430;DHT22;11382;48.086;11.632;2022-07-29T12:29:16;31.70;57.70
22430;DHT22;11382;48.086;11.632;2022-07-29T12:32:01;31.60;57.70
22430;DHT22;11382;48.086;11.632;2022-07-29T12:34:31;31.60;56.50
22430;DHT22;11382;48.086;11.632;2022-07-29T12:36:59;31.60;55.80
22430;DHT22;11382;48.086;11.632;2022-07-29T12:39:28;31.50;55.90
22430;DHT22;11382;48.086;11.632;2022-07-29T12:41:56;31.50;57.80
22430;DHT22;11382;48.086;11.632;2022-07-29T12:44:44;31.50;57.20
22430;DHT22;11382;48.086;11.632;2022-07-29T12:47:13;31.60;57.40
22430;DHT22;11382;48.086;11.632;2022-07-29T12:49:42;31.50;56.20
22430;DHT22;11382;48.086;11.632;2022-07-29T12:52:27;31.50;56.30
22430;DHT22;11382;48.086;11.632;2022-07-29T12:54:55;31.30;58.50
22430;DHT22;11382;48.086;11.632;2022-07-29T12:57:23;31.20;57.90
22430;DHT22;11382;48.086;11.632;2022-07-29T13:00:05;31.20;58.80
22430;DHT22;11382;48.086;11.632;2022-07-29T13:02:38;31.10;59.00
22430;DHT22;11382;48.086;11.632;2022-07-29T13:05:07;31.00;58.40
22430;DHT22;11382;48.086;11.632;2022-07-29T13:07:36;30.80;59.90
22430;DHT22;11382;48.086;11.632;2022-07-29T13:10:23;30.90;57.80
22430;DHT22;11382;48.086;11.632;2022-07-29T13:13:13;31.00;57.80
22430;DHT22;11382;48.086;11.632;2022-07-29T13:15:43;30.90;58.40
22430;DHT22;11382;48.086;11.632;2022-07-29T13:18:29;30.50;59.80
22430;DHT22;11382;48.086;11.632;2022-07-29T13:20:58;30.10;61.50
22430;DHT22;11382;48.086;11.632;2022-07-29T13:23:38;29.90;61.50
22430;DHT22;11382;48.086;11.632;2022-07-29T13:26:06;29.70;61.50
22430;DHT22;11382;48.086;11.632;2022-07-29T13:28:34;29.20;60.80
22430;DHT22;11382;48.086;11.632;2022-07-29T13:31:02;29.00;62.90
22430;DHT22;11382;48.086;11.632;2022-07-29T13:33:32;28.80;61.80
22430;DHT22;11382;48.086;11.632;2022-07-29T13:36:00;28.50;63.60
22430;DHT22;11382;48.086;11.632;2022-07-29T13:38:28;28.20;64.60
22430;DHT22;11382;48.086;11.632;2022-07-29T13:40:57;28.10;65.80
22430;DHT22;11382;48.086;11.632;2022-07-29T13:43:25;27.90;66.60
22430;DHT22;11382;48.086;11.632;2022-07-29T13:45:53;27.80;67.20
22430;DHT22;11382;48.086;11.632;2022-07-29T13:48:21;27.70;69.20
22430;DHT22;11382;48.086;11.632;2022-07-29T13:50:50;27.60;70.70
22430;DHT22;11382;48.086;11.632;2022-07-29T13:53:18;27.50;70.00
22430;DHT22;11382;48.086;11.632;2022-07-29T13:55:53;27.50;71.20
22430;DHT22;11382;48.086;11.632;2022-07-29T13:58:21;27.50;70.40
22430;DHT22;11382;48.086;11.632;2022-07-29T14:00:49;27.70;71.40
22430;DHT22;11382;48.086;11.632;2022-07-29T14:03:18;27.80;70.30
22430;DHT22;11382;48.086;11.632;2022-07-29T14:05:46;27.90;71.90
22430;DHT22;11382;48.086;11.632;2022-07-29T14:08:15;28.20;72.60
22430;DHT22;11382;48.086;11.632;2022-07-29T14:10:43;28.40;71.30
22430;DHT22;11382;48.086;11.632;2022-07-29T14:13:11;28.70;71.90
22430;DHT22;11382;48.086;11.632;2022-07-29T14:15:52;28.70;71.20
22430;DHT22;11382;48.086;11.632;2022-07-29T14:18:20;28.80;70.60
22430;DHT22;11382;48.086;11.632;2022-07-29T14:20:48;28.80;69.30
22430;DHT22;11382;48.086;11.632;2022-07-29T14:23:17;29.00;70.70
22430;DHT22;11382;48.086;11.632;2022-07-29T14:25:46;29.50;70.10
22430;DHT22;11382;48.086;11.632;2022-07-29T14:28:15;29.90;68.40
22430;DHT22;11382;48.086;11.632;2022-07-29T14:30:43;29.90;68.60
22430;DHT22;11382;48.086;11.632;2022-07-29T14:33:11;29.70;67.70
22430;DHT22;11382;48.086;11.632;2022-07-29T14:35:39;29.50;68.40
22430;DHT22;11382;48.086;11.632;2022-07-29T14:38:07;29.40;69.50
22430;DHT22;11382;48.086;11.632;2022-07-29T14:40:37;28.80;69.50
22430;DHT22;11382;48.086;11.632;2022-07-29T14:43:05;28.40;69.40
22430;DHT22;11382;48.086;11.632;2022-07-29T14:45:33;28.30;70.70
22430;DHT22;11382;48.086;11.632;2022-07-29T14:48:01;28.00;70.70
22430;DHT22;11382;48.086;11.632;2022-07-29T14:50:29;28.20;73.60
22430;DHT22;11382;48.086;11.632;2022-07-29T14:52:58;28.40;73.00
22430;DHT22;11382;48.086;11.632;2022-07-29T14:55:26;28.50;71.10
22430;DHT22;11382;48.086;11.632;2022-07-29T14:57:55;28.50;69.20
22430;DHT22;11382;48.086;11.632;2022-07-29T15:00:35;28.20;68.90
22430;DHT22;11382;48.086;11.632;2022-07-29T15:03:04;27.90;70.80
22430;DHT22;11382;48.086;11.632;2022-07-29T15:05:37;27.90;71.10
22430;DHT22;11382;48.086;11.632;2022-07-29T15:08:05;27.80;71.60
22430;DHT22;11382;48.086;11.632;2022-07-29T15:10:34;27.90;71.70
22430;DHT22;11382;48.086;11.632;2022-07-29T15:13:03;28.00;71.00
22430;DHT22;11382;48.086;11.632;2022-07-29T15:15:31;28.00;72.70
22430;DHT22;11382;48.086;11.632;2022-07-29T15:17:59;27.90;72.80
22430;DHT22;11382;48.086;11.632;2022-07-29T15:20:27;27.80;72.10
22430;DHT22;11382;48.086;11.632;2022-07-29T15:22:56;27.30;73.00
22430;DHT22;11382;48.086;11.632;2022-07-29T15:25:24;27.30;72.90
22430;DHT22;11382;48.086;11.632;2022-07-29T15:27:54;27.20;72.80
22430;DHT22;11382;48.086;11.632;2022-07-29T15:30:30;27.00;71.40
22430;DHT22;11382;48.086;11.632;2022-07-29T15:33:01;26.80;73.50
22430;DHT22;11382;48.086;11.632;2022-07-29T15:35:29;26.80;73.90
22430;DHT22;11382;48.086;11.632;2022-07-29T15:37:57;26.80;75.00
22430;DHT22;11382;48.086;11.632;2022-07-29T15:40:25;26.80;74.90
22430;DHT22;11382;48.086;11.632;2022-07-29T15:42:53;26.90;75.70
22430;DHT22;11382;48.086;11.632;2022-07-29T15:45:21;27.00;75.60